Skip Navigation LinksHome page > Weather > Current weather Skip Navigation Links

Current Weather

Cambridge-Dorchester, Cambridge, Md.

For information only: do not use for flight planning or navigation.
Latest weather
Observation time Wednesday, January 27, 2021 10:15 AM EST
Local time Wednesday, January 27, 2021 10:37 AM EST
Flight conditions Visual Meteorological Conditions
Winds
Wind direction North-Northwest (340°)
Wind speed 14 mph
Wind gusting to 23 mph
Visibility 10 mi.
Sky condition
Ceiling unlimited
Sky clear
Temperature 43°F
Dewpoint 34°F
Altimeter 30.10 in.Hg
Derived measurements
Relative humidity 70%
Wind chill 36°F
Density altitude -1173 ft.
Remarks
Fully automated report.
METAR KCGE 271515Z AUTO 34012G20KT 10SM CLR 06/01 A3010 RMK A01

Settings

Location code

InnerDrive.Weather 4.0.6770.0 Release CLR 4.0.30319.42000
Copyright ©2018 Inner Drive Technology. All rights reserved. Portions Copyright ©1986-2018 David Braverman.

Find weather

Site navigation


Skip Navigation Links

Place info

Page info

PayPal - The safer, easier way to pay online!

Return home.

Copyright ©2021 Inner Drive Technology. Purveyors of fine, hand-crafted computer software. Page printed 2021-01-27T15:37:24 UTC.